Terminal Aerodrome Forecast
Issued by NWS Shreveport, LA

Home | Current Version | Previous Version | Text Only | Print | Product List | Glossary On
Versions: 1 2 3 4 5 6 7 8 9 10 11 12 13 14 15 16 17 18 19
451
FTUS44 KSHV 241135
TAFTXK
TAF
KTXK 241135Z 2412/2512 29006KT P6SM SKC
     FM241500 31016G27KT P6SM SCT250
     FM241800 29013G23KT P6SM BKN050
     FM250100 29003KT P6SM SKC=

USA.gov is the U.S. government's official web portal to all federal, state and local government web resources and services.